Time;durP1;ratioP1;P1;durP2;ratioP2;P2;SDS_P1;SDS_P2;PMS_P1;PMS_P2;Temp;Humidity;BMP_temperature;BMP_pressure;BME280_temperature;BME280_humidity;BME280_pressure;Samples;Min_cycle;Max_cycle;Signal;HPM_P1;HPM_P2
2023/02/09 00:00:07;;;;;;;12.02;5.38;;;;;;;0.34;74.33;103170.34;5036781;28;20091;-65
2023/02/09 00:02:33;;;;;;;10.20;5.20;;;;;;;0.34;73.28;103172.06;5027689;28;20052;-65
2023/02/09 00:04:59;;;;;;;9.38;4.68;;;;;;;0.31;72.32;103175.53;5036623;28;20053;-66
2023/02/09 00:07:26;;;;;;;9.85;5.22;;;;;;;0.32;74.59;103169.50;5022908;28;20056;-66
2023/02/09 00:09:52;;;;;;;12.27;5.03;;;;;;;0.32;72.76;103176.41;5019082;28;20132;-66
2023/02/09 00:15:05;;;;;;;9.73;5.22;;;;;;;0.30;74.15;103188.50;5031909;28;20060;-66
2023/02/09 00:17:34;;;;;;;9.57;4.80;;;;;;;0.24;75.82;103184.25;5036625;28;20067;-66
2023/02/09 00:20:03;;;;;;;8.48;5.00;;;;;;;0.20;76.47;103192.94;5027381;28;20061;-66
2023/02/09 00:22:30;;;;;;;10.88;5.32;;;;;;;0.15;76.13;103192.97;5026767;28;20045;-66
2023/02/09 00:24:56;;;;;;;8.95;5.18;;;;;;;0.14;75.44;103188.69;5025001;28;20053;-66
2023/02/09 00:27:23;;;;;;;9.68;4.78;;;;;;;0.13;74.43;103186.97;5031602;28;20048;-66
2023/02/09 00:29:49;;;;;;;9.88;5.25;;;;;;;0.09;74.34;103184.47;5029786;28;20081;-66
2023/02/09 00:32:16;;;;;;;11.32;5.90;;;;;;;0.05;76.69;103190.56;5026360;28;20048;-66
2023/02/09 00:34:43;;;;;;;9.73;5.38;;;;;;;-0.04;79.07;103187.22;5029766;28;20053;-66
2023/02/09 00:37:09;;;;;;;10.75;5.35;;;;;;;-0.08;79.10;103190.72;5016885;28;20076;-66
2023/02/09 00:39:35;;;;;;;9.93;5.32;;;;;;;-0.13;78.55;103184.75;5026650;28;20052;-66
2023/02/09 00:42:05;;;;;;;9.50;4.97;;;;;;;-0.14;78.30;103188.19;5033288;28;20064;-66
2023/02/09 00:44:37;;;;;;;8.77;4.85;;;;;;;-0.17;78.62;103175.34;5027563;28;20061;-66
2023/02/09 00:47:05;;;;;;;8.35;4.75;;;;;;;-0.22;80.52;103188.31;5049243;28;20136;-66
2023/02/09 00:49:32;;;;;;;9.85;5.13;;;;;;;-0.28;82.23;103172.03;5017253;28;20053;-66
2023/02/09 00:51:59;;;;;;;9.80;5.82;;;;;;;-0.28;80.33;103183.19;5026623;28;20049;-66
2023/02/09 00:54:26;;;;;;;11.48;5.30;;;;;;;-0.32;80.53;103178.94;5024925;28;20080;-66
2023/02/09 00:56:52;;;;;;;8.85;5.10;;;;;;;-0.35;80.18;103185.88;5032735;28;20083;-66
2023/02/09 00:59:18;;;;;;;12.10;4.80;;;;;;;-0.37;81.02;103182.44;5035141;28;20053;-66
2023/02/09 01:01:45;;;;;;;11.38;5.47;;;;;;;-0.40;80.20;103186.78;5032063;28;20047;-66
2023/02/09 01:04:11;;;;;;;10.93;5.40;;;;;;;-0.42;81.74;103185.09;5031888;28;20064;-66
2023/02/09 01:06:38;;;;;;;11.82;6.00;;;;;;;-0.48;82.99;103187.75;5023029;28;20053;-66
2023/02/09 01:09:07;;;;;;;10.38;5.80;;;;;;;-0.48;81.96;103185.16;5031627;28;20045;-67
2023/02/09 01:11:35;;;;;;;12.45;6.00;;;;;;;-0.53;83.25;103184.34;5028079;28;20512;-66
2023/02/09 01:14:03;;;;;;;10.30;5.57;;;;;;;-0.53;81.62;103192.97;5041396;28;20484;-66
2023/02/09 01:16:30;;;;;;;14.93;5.95;;;;;;;-0.55;81.15;103179.19;5027588;28;20045;-66
2023/02/09 01:19:00;;;;;;;10.55;5.45;;;;;;;-0.56;82.90;103174.94;5039477;28;20123;-66
2023/02/09 01:21:27;;;;;;;12.73;5.78;;;;;;;-0.58;82.17;103171.53;5027454;28;20056;-66
2023/02/09 01:23:53;;;;;;;9.57;5.15;;;;;;;-0.54;82.30;103174.94;5025481;28;20087;-66
2023/02/09 01:26:20;;;;;;;11.18;5.75;;;;;;;-0.57;82.30;103165.47;5039688;28;20049;-66
2023/02/09 01:28:49;;;;;;;12.00;5.95;;;;;;;-0.57;82.96;103164.63;5022995;28;20336;-66
2023/02/09 01:31:25;;;;;;;11.00;5.80;;;;;;;-0.62;81.10;103165.53;5033456;28;20045;-66
2023/02/09 01:33:53;;;;;;;11.60;5.88;;;;;;;-0.67;82.99;103167.28;5028899;28;20578;-67
2023/02/09 01:36:20;;;;;;;11.75;5.65;;;;;;;-0.75;85.77;103169.09;5034569;28;20053;-66
2023/02/09 01:38:47;;;;;;;9.40;5.30;;;;;;;-0.78;84.30;103176.88;5035491;28;20048;-66
2023/02/09 01:41:14;;;;;;;10.13;5.45;;;;;;;-0.83;84.81;103176.06;5034592;28;20053;-66
2023/02/09 01:43:52;;;;;;;10.38;5.47;;;;;;;-0.87;88.05;103174.38;5038024;28;20056;-66
2023/02/09 01:46:20;;;;;;;9.68;6.20;;;;;;;-0.92;86.07;103165.84;5033153;28;20068;-67
2023/02/09 01:48:52;;;;;;;11.90;5.90;;;;;;;-0.96;87.38;103171.91;5038747;28;20101;-66
2023/02/09 01:51:19;;;;;;;12.18;5.72;;;;;;;-0.99;86.83;103175.34;5017457;28;20065;-67
2023/02/09 01:53:46;;;;;;;9.60;5.30;;;;;;;-1.02;88.65;103172.81;5023699;28;20406;-66
2023/02/09 01:56:18;;;;;;;9.90;5.38;;;;;;;-1.01;86.36;103177.94;5027308;28;20145;-66
2023/02/09 01:58:46;;;;;;;12.63;6.15;;;;;;;-1.06;87.82;103178.84;5031818;28;20049;-66
2023/02/09 02:01:13;;;;;;;9.85;5.30;;;;;;;-1.08;88.02;103178.00;5037030;28;20045;-66
2023/02/09 02:03:40;;;;;;;11.45;5.47;;;;;;;-1.10;86.82;103169.44;5021731;28;20064;-66
2023/02/09 02:06:13;;;;;;;9.95;5.18;;;;;;;-1.08;86.59;103160.84;5020108;28;20050;-67
2023/02/09 02:08:49;;;;;;;12.77;6.20;;;;;;;-1.05;86.70;103157.38;5028179;28;20053;-66
2023/02/09 02:11:17;;;;;;;10.48;5.45;;;;;;;-1.12;85.93;103163.44;5028877;28;20987;-66
2023/02/09 02:13:43;;;;;;;11.98;5.38;;;;;;;-1.15;86.22;103154.03;5025567;28;20557;-66
2023/02/09 02:16:40;;;;;;;10.20;5.05;;;;;;;-1.22;89.15;103144.66;5029679;28;20053;-66
2023/02/09 02:19:22;;;;;;;9.50;4.82;;;;;;;-1.22;88.22;103148.06;5032381;28;20461;-66
2023/02/09 02:22:46;;;;;;;9.60;5.55;;;;;;;-1.25;89.05;103142.97;5041136;28;20417;-66
2023/02/09 02:25:40;;;;;;;11.23;5.38;;;;;;;-1.31;88.96;103148.16;4958261;28;20055;-67
2023/02/09 02:28:27;;;;;;;9.13;5.22;;;;;;;-1.32;88.54;103148.16;4963439;28;20046;-66
2023/02/09 02:31:29;;;;;;;9.45;4.93;;;;;;;-1.35;87.74;103151.63;5018211;28;20127;-66
2023/02/09 02:34:17;;;;;;;9.95;5.40;;;;;;;-1.37;88.84;103139.63;5009206;28;20073;-66
2023/02/09 02:36:54;;;;;;;9.95;5.72;;;;;;;-1.36;88.06;103142.19;5027941;28;20042;-66
2023/02/09 02:39:32;;;;;;;13.00;5.55;;;;;;;-1.38;86.75;103138.78;5034532;28;20037;-67
2023/02/09 02:45:09;;;;;;;13.15;6.18;;;;;;;-1.40;88.43;103133.63;5036562;28;20056;-67
2023/02/09 02:47:42;;;;;;;11.38;5.80;;;;;;;-1.41;91.14;103128.53;5032584;28;20608;-66
2023/02/09 02:50:13;;;;;;;10.30;5.70;;;;;;;-1.42;90.39;103121.66;5032825;28;20076;-67
2023/02/09 02:52:45;;;;;;;10.50;5.68;;;;;;;-1.41;90.39;103123.38;5044193;28;20052;-67
2023/02/09 02:55:15;;;;;;;11.85;5.38;;;;;;;-1.40;88.34;103117.34;5025456;28;20048;-66
2023/02/09 02:57:47;;;;;;;11.60;7.00;;;;;;;-1.44;90.97;103118.22;5027005;28;20111;-66
2023/02/09 03:00:29;;;;;;;12.65;5.93;;;;;;;-1.48;91.00;103121.69;5023726;28;20048;-67
2023/02/09 03:03:04;;;;;;;10.30;5.68;;;;;;;-1.49;88.49;103114.81;5020337;28;20050;-66
2023/02/09 03:05:31;;;;;;;9.95;5.53;;;;;;;-1.56;92.17;103114.03;5028379;28;20045;-66
2023/02/09 03:07:58;;;;;;;13.07;5.95;;;;;;;-1.60;91.66;103107.19;5027350;28;20464;-66
2023/02/09 03:10:27;;;;;;;10.38;5.65;;;;;;;-1.63;93.86;103102.06;5018097;28;20432;-66
2023/02/09 03:13:02;;;;;;;10.40;5.55;;;;;;;-1.66;93.52;103100.38;5029898;28;20080;-66
2023/02/09 03:15:53;;;;;;;9.82;5.55;;;;;;;-1.63;93.19;103110.66;5023356;28;20049;-67
2023/02/09 03:19:01;;;;;;;10.55;5.40;;;;;;;-1.65;93.66;103101.22;5030033;28;20052;-66
2023/02/09 03:21:46;;;;;;;11.13;5.15;;;;;;;-1.67;90.35;103092.66;5027117;28;20045;-66
2023/02/09 03:24:26;;;;;;;16.25;5.60;;;;;;;-1.68;92.40;103093.53;5040041;28;20049;-66
2023/02/09 03:27:13;;;;;;;11.98;5.28;;;;;;;-1.55;85.70;103105.44;5024989;28;20061;-66
2023/02/09 03:29:43;;;;;;;11.80;5.47;;;;;;;-1.50;88.14;103108.00;5004299;28;20073;-66
2023/02/09 03:32:10;;;;;;;8.02;4.85;;;;;;;-1.49;84.46;103107.09;5032832;28;20064;-66
2023/02/09 03:34:37;;;;;;;13.05;5.60;;;;;;;-1.48;87.23;103109.66;5036537;28;20059;-66
2023/02/09 03:37:04;;;;;;;9.10;5.18;;;;;;;-1.45;85.52;103103.63;5046956;28;20056;-66
2023/02/09 03:39:30;;;;;;;8.73;4.95;;;;;;;-1.42;85.04;103098.47;5046904;28;20045;-66
2023/02/09 03:41:57;;;;;;;10.70;4.85;;;;;;;-1.42;81.90;103099.31;5030476;28;20068;-66
2023/02/09 03:44:26;;;;;;;9.35;4.97;;;;;;;-1.36;77.58;103092.41;5024130;28;20061;-67
2023/02/09 03:47:05;;;;;;;9.93;4.75;;;;;;;-1.21;76.40;103093.13;5029305;28;20057;-66
2023/02/09 03:49:35;;;;;;;11.05;4.70;;;;;;;-1.15;75.85;103088.81;5041393;28;20052;-66
2023/02/09 03:52:02;;;;;;;10.32;5.20;;;;;;;-1.07;73.16;103085.25;5023812;28;20513;-66
2023/02/09 03:54:30;;;;;;;9.77;4.97;;;;;;;-1.03;73.20;103071.47;5034082;28;20118;-66
2023/02/09 03:56:57;;;;;;;10.57;5.47;;;;;;;-1.02;72.56;103070.63;5032636;28;20141;-67
2023/02/09 03:59:25;;;;;;;9.43;4.72;;;;;;;-0.90;72.18;103076.50;5039828;28;20037;-66
2023/02/09 04:01:53;;;;;;;7.40;4.22;;;;;;;-0.83;71.46;103070.41;5029578;28;20406;-68
2023/02/09 04:04:20;;;;;;;11.27;5.43;;;;;;;-0.79;73.00;103069.50;5012930;28;20104;-66
2023/02/09 04:06:47;;;;;;;9.77;4.82;;;;;;;-0.79;71.67;103064.34;5026438;28;20081;-66
2023/02/09 04:09:14;;;;;;;8.95;4.78;;;;;;;-0.79;71.22;103054.03;5020100;28;20046;-66
2023/02/09 04:11:40;;;;;;;10.25;5.20;;;;;;;-0.75;70.56;103050.56;5033910;28;20045;-66
2023/02/09 04:14:10;;;;;;;11.75;5.13;;;;;;;-0.74;70.41;103048.84;5027628;28;20049;-66
2023/02/09 04:16:36;;;;;;;10.35;5.28;;;;;;;-0.72;71.14;103055.69;5032734;28;20072;-66
2023/02/09 04:19:04;;;;;;;9.70;5.20;;;;;;;-0.68;69.70;103053.94;5024649;28;20095;-66
2023/02/09 04:21:31;;;;;;;10.70;4.70;;;;;;;-0.68;69.41;103057.34;5029352;28;20055;-66
2023/02/09 04:23:57;;;;;;;9.27;4.90;;;;;;;-0.66;70.22;103057.34;5022472;28;20049;-66
2023/02/09 04:26:23;;;;;;;10.35;4.97;;;;;;;-0.65;69.84;103053.88;5018505;28;20042;-66
2023/02/09 04:28:50;;;;;;;11.52;5.32;;;;;;;-0.65;69.14;103052.16;5032099;28;20049;-67
2023/02/09 04:31:17;;;;;;;12.02;4.70;;;;;;;-0.65;69.04;103043.56;5023630;28;20049;-66
2023/02/09 04:33:44;;;;;;;10.15;5.25;;;;;;;-0.65;70.14;103049.59;5030022;28;20057;-66
2023/02/09 04:36:11;;;;;;;11.23;5.68;;;;;;;-0.62;69.20;103049.53;5025151;28;20045;-66
2023/02/09 04:38:37;;;;;;;9.98;5.40;;;;;;;-0.65;68.98;103043.56;5022165;28;20049;-67
2023/02/09 04:41:04;;;;;;;9.75;5.15;;;;;;;-0.63;69.59;103044.38;5026925;28;20050;-67
2023/02/09 04:43:31;;;;;;;10.70;5.72;;;;;;;-0.60;69.55;103039.22;5024657;28;20053;-66
2023/02/09 04:45:58;;;;;;;10.52;5.18;;;;;;;-0.62;69.96;103041.78;5029373;28;20497;-67
2023/02/09 04:48:27;;;;;;;11.50;5.15;;;;;;;-0.61;69.70;103034.91;5023923;28;20085;-66
2023/02/09 04:50:53;;;;;;;12.55;5.55;;;;;;;-0.64;69.55;103035.81;5027174;28;20050;-68
2023/02/09 04:53:20;;;;;;;12.65;5.25;;;;;;;-0.62;69.02;103046.13;5020262;28;20049;-66
2023/02/09 04:55:47;;;;;;;10.90;5.45;;;;;;;-0.62;68.65;103046.13;5029066;28;20041;-67
2023/02/09 05:01:02;;;;;;;9.57;3.92;;;;;;;-0.54;68.63;103046.00;5027446;28;20128;-67
2023/02/09 05:03:29;;;;;;;10.63;5.33;;;;;;;-0.53;68.89;103058.88;5032626;28;20059;-66
2023/02/09 05:06:00;;;;;;;10.75;5.03;;;;;;;-0.50;69.74;103055.41;5026999;28;20529;-67
2023/02/09 05:08:26;;;;;;;8.43;4.78;;;;;;;-0.54;69.31;103044.28;5036490;28;20152;-66
2023/02/09 05:10:53;;;;;;;12.00;5.15;;;;;;;-0.56;68.58;103047.75;5030894;28;20041;-66
2023/02/09 05:13:21;;;;;;;10.57;5.45;;;;;;;-0.56;69.20;103046.03;5038546;28;20041;-65
2023/02/09 05:15:48;;;;;;;8.32;4.75;;;;;;;-0.59;69.22;103051.22;5036588;28;20061;-66
2023/02/09 05:18:15;;;;;;;11.15;5.05;;;;;;;-0.54;69.51;103052.00;5023352;28;20398;-66
2023/02/09 05:20:43;;;;;;;8.63;4.75;;;;;;;-0.55;69.11;103055.44;5026103;28;20057;-66
2023/02/09 05:23:11;;;;;;;9.32;5.35;;;;;;;-0.55;69.63;103052.88;5025383;28;20046;-66
2023/02/09 05:25:38;;;;;;;11.90;4.65;;;;;;;-0.54;69.44;103057.16;5038141;28;20056;-66
2023/02/09 05:28:05;;;;;;;12.07;5.70;;;;;;;-0.56;69.92;103060.66;5030245;28;20075;-67
2023/02/09 05:30:31;;;;;;;10.13;5.05;;;;;;;-0.58;69.32;103065.81;5038270;28;20497;-65
2023/02/09 05:32:58;;;;;;;9.38;5.15;;;;;;;-0.57;69.81;103070.09;5026641;28;20450;-65
2023/02/09 05:35:24;;;;;;;10.10;5.95;;;;;;;-0.53;70.45;103078.63;5018111;28;20046;-64
2023/02/09 05:37:51;;;;;;;10.50;5.07;;;;;;;-0.55;69.20;103083.81;5037481;28;20706;-65
2023/02/09 05:40:17;;;;;;;9.77;5.32;;;;;;;-0.52;69.20;103082.94;5029228;28;20509;-65
2023/02/09 05:42:44;;;;;;;9.55;5.88;;;;;;;-0.54;71.49;103089.84;5044507;28;20083;-64
2023/02/09 05:45:10;;;;;;;11.85;6.55;;;;;;;-0.52;71.08;103077.78;5033186;28;20057;-66
2023/02/09 05:47:37;;;;;;;10.50;5.35;;;;;;;-0.59;69.75;103077.00;5028620;28;20063;-65
2023/02/09 05:50:03;;;;;;;11.88;5.80;;;;;;;-0.61;70.23;103079.63;5037022;28;20252;-65
2023/02/09 05:52:30;;;;;;;10.77;5.57;;;;;;;-0.62;70.29;103085.63;5031164;28;20045;-65
2023/02/09 05:54:56;;;;;;;13.07;5.95;;;;;;;-0.64;70.15;103079.63;5038717;28;20156;-66
2023/02/09 05:57:22;;;;;;;12.18;6.13;;;;;;;-0.64;70.73;103083.94;5029287;28;20045;-65
2023/02/09 05:59:49;;;;;;;11.70;5.97;;;;;;;-0.66;71.85;103070.22;5033843;28;20190;-66
2023/02/09 06:02:15;;;;;;;10.73;4.72;;;;;;;-0.69;71.66;103072.81;5019001;28;20045;-65
2023/02/09 06:04:42;;;;;;;10.02;4.95;;;;;;;-0.63;72.25;103070.16;5018413;28;20089;-66
2023/02/09 06:07:08;;;;;;;12.27;6.30;;;;;;;-0.66;71.33;103070.22;5031015;28;20049;-65
2023/02/09 06:09:37;;;;;;;;;;;;;;;-0.63;71.74;103068.47;5021388;28;20049;-66
2023/02/09 06:12:03;;;;;;;11.52;6.05;;;;;;;-0.67;70.62;103071.06;5028355;28;19925;-65
2023/02/09 06:14:30;;;;;;;12.25;5.70;;;;;;;-0.68;71.29;103077.13;5035078;28;20090;-65
2023/02/09 06:16:56;;;;;;;12.48;6.00;;;;;;;-0.66;73.19;103077.97;5036863;28;20097;-65
2023/02/09 06:19:23;;;;;;;14.38;6.20;;;;;;;-0.64;71.95;103077.06;5030398;28;20202;-65
2023/02/09 06:21:49;;;;;;;11.32;5.57;;;;;;;-0.65;72.35;103077.94;5035856;28;20051;-65
2023/02/09 06:24:16;;;;;;;11.05;5.90;;;;;;;-0.66;71.70;103076.22;5035883;28;20548;-65
2023/02/09 06:26:42;;;;;;;12.23;6.38;;;;;;;-0.63;72.46;103078.78;5022040;28;20132;-65
2023/02/09 06:29:09;;;;;;;12.98;5.72;;;;;;;-0.60;71.09;103077.88;5024218;28;20057;-65
2023/02/09 06:31:36;;;;;;;12.98;5.85;;;;;;;-0.55;72.43;103088.97;5020612;28;20053;-65
2023/02/09 06:34:04;;;;;;;12.13;6.60;;;;;;;-0.57;71.67;103082.97;5035229;28;20135;-65
2023/02/09 06:36:31;;;;;;;11.65;6.60;;;;;;;-0.53;71.96;103097.56;5029172;28;20045;-65
2023/02/09 06:38:57;;;;;;;12.18;6.25;;;;;;;-0.52;72.61;103101.00;5041844;28;20050;-65
2023/02/09 06:41:24;;;;;;;10.75;6.28;;;;;;;-0.53;72.90;103107.00;5030333;28;20099;-66
2023/02/09 06:43:50;;;;;;;10.48;5.72;;;;;;;-0.62;71.16;103106.25;5027146;28;20060;-65
2023/02/09 06:46:17;;;;;;;13.18;6.15;;;;;;;-0.61;71.45;103101.94;5038250;28;20059;-65
2023/02/09 06:48:44;;;;;;;12.60;6.53;;;;;;;-0.66;71.05;103099.41;5026842;28;20056;-65
2023/02/09 06:51:13;;;;;;;10.35;6.00;;;;;;;-0.61;71.29;103107.09;5046106;28;20538;-65
2023/02/09 06:53:41;;;;;;;14.38;6.55;;;;;;;-0.60;72.38;103114.81;5031610;28;20103;-65
2023/02/09 06:56:09;;;;;;;13.52;6.47;;;;;;;-0.60;71.59;103113.97;5042811;28;20049;-65
2023/02/09 06:58:37;;;;;;;11.10;6.03;;;;;;;-0.58;72.98;103116.53;5033552;28;20049;-65
2023/02/09 07:01:09;;;;;;;20.40;6.77;;;;;;;-0.55;71.22;103130.22;5026739;28;20498;-65
2023/02/09 07:03:36;;;;;;;14.10;6.60;;;;;;;-0.60;72.12;103126.84;5035796;28;21135;-65
2023/02/09 07:06:07;;;;;;;12.18;6.32;;;;;;;-0.54;71.59;103131.09;5022446;28;20265;-65
2023/02/09 07:08:35;;;;;;;12.77;7.20;;;;;;;-0.62;70.80;103126.03;5030986;28;20057;-65
2023/02/09 07:11:03;;;;;;;13.90;6.97;;;;;;;-0.63;71.93;103132.03;5037759;28;20389;-65
2023/02/09 07:13:31;;;;;;;12.73;7.00;;;;;;;-0.54;72.74;103144.81;5037909;28;20403;-65
2023/02/09 07:15:58;;;;;;;14.23;7.05;;;;;;;-0.62;71.64;103134.59;5037743;28;20049;-65
2023/02/09 07:18:26;;;;;;;11.88;6.05;;;;;;;-0.62;73.46;103129.44;5027025;28;20136;-66
2023/02/09 07:20:58;;;;;;;10.00;5.57;;;;;;;-0.63;72.97;103130.34;5038841;28;20091;-66
2023/02/09 07:23:24;;;;;;;10.82;6.65;;;;;;;-0.64;74.83;103135.50;5027547;28;20045;-67
2023/02/09 07:25:51;;;;;;;12.23;6.75;;;;;;;-0.62;73.45;103139.75;5039851;28;20049;-67
2023/02/09 07:28:21;;;;;;;13.85;7.18;;;;;;;-0.56;75.13;103144.00;5035990;28;20075;-66
2023/02/09 07:30:50;;;;;;;12.30;6.43;;;;;;;-0.49;76.45;103150.81;5036315;28;20131;-66
2023/02/09 07:33:18;;;;;;;13.77;6.68;;;;;;;-0.46;74.66;103142.16;5032109;28;20045;-68
2023/02/09 07:35:45;;;;;;;14.77;6.45;;;;;;;-0.45;76.14;103134.41;5025574;28;20061;-67
2023/02/09 07:38:12;;;;;;;13.93;7.03;;;;;;;-0.44;75.89;103130.09;5028922;28;20063;-65
2023/02/09 07:40:44;;;;;;;14.80;6.72;;;;;;;-0.38;75.16;103142.91;5036536;28;20060;-65
2023/02/09 07:43:12;;;;;;;14.82;6.75;;;;;;;-0.32;76.13;103154.88;5035830;28;20359;-65
2023/02/09 07:45:40;;;;;;;12.87;7.27;;;;;;;-0.31;74.65;103151.47;5025160;28;20052;-66
2023/02/09 07:48:09;;;;;;;14.15;6.88;;;;;;;-0.29;73.86;103158.28;5032776;28;20282;-66
2023/02/09 07:50:36;;;;;;;15.13;7.00;;;;;;;-0.30;73.77;103142.84;5036588;28;20672;-66
2023/02/09 07:53:03;;;;;;;12.02;6.68;;;;;;;-0.31;75.02;103146.28;5029198;28;20052;-66
2023/02/09 07:55:29;;;;;;;12.98;6.85;;;;;;;-0.27;74.96;103158.28;5036253;28;20064;-66
2023/02/09 07:57:55;;;;;;;16.77;6.95;;;;;;;-0.34;76.00;103146.31;5028968;28;20422;-65
2023/02/09 08:00:23;;;;;;;13.02;7.32;;;;;;;-0.36;74.75;103146.34;5036323;28;20061;-66
2023/02/09 08:02:49;;;;;;;14.57;6.63;;;;;;;-0.35;74.19;103142.91;5028058;28;20060;-66
2023/02/09 08:05:20;;;;;;;15.23;6.57;;;;;;;-0.29;74.65;103129.91;5035377;28;20053;-65
2023/02/09 08:07:46;;;;;;;14.35;7.18;;;;;;;-0.34;74.52;103136.84;5033387;28;20045;-66
2023/02/09 08:10:13;;;;;;;13.85;6.72;;;;;;;-0.32;74.55;103136.84;5031596;28;20057;-67
2023/02/09 08:15:44;;;;;;;13.52;7.55;;;;;;;-0.23;73.88;103145.31;5035941;28;20049;-68
2023/02/09 08:18:15;;;;;;;12.55;6.15;;;;;;;-0.25;73.22;103130.75;5017476;28;20072;-66
2023/02/09 08:20:43;;;;;;;15.10;7.07;;;;;;;-0.19;74.84;103130.66;5024834;28;20116;-67
2023/02/09 08:23:24;;;;;;;12.38;6.80;;;;;;;-0.14;73.26;103136.59;5040677;28;20590;-67
2023/02/09 08:25:51;;;;;;;16.98;7.43;;;;;;;-0.16;73.63;103134.91;5028264;28;20420;-69
2023/02/09 08:28:19;;;;;;;12.60;7.22;;;;;;;-0.11;74.46;103115.91;5042092;28;20068;-68
2023/02/09 08:30:47;;;;;;;14.38;7.15;;;;;;;-0.13;73.15;103109.94;5044323;28;20107;-67
2023/02/09 08:33:14;;;;;;;13.73;7.03;;;;;;;-0.10;73.84;103106.44;5031354;28;20056;-67
2023/02/09 08:35:41;;;;;;;16.13;7.32;;;;;;;-0.07;75.41;103103.84;5033156;28;20049;-68
2023/02/09 08:38:08;;;;;;;14.70;7.35;;;;;;;-0.02;74.80;103104.59;5031391;28;20048;-67
2023/02/09 08:40:40;;;;;;;12.52;7.53;;;;;;;0.04;74.96;103098.50;5035682;28;20048;-67
2023/02/09 08:43:07;;;;;;;13.30;6.90;;;;;;;0.07;74.48;103096.75;5021437;28;20454;-68
2023/02/09 08:45:39;;;;;;;18.27;7.53;;;;;;;0.12;73.16;103107.00;5036387;28;20420;-66
2023/02/09 08:48:10;;;;;;;17.20;7.63;;;;;;;0.21;73.40;103117.19;5036059;28;20057;-65
2023/02/09 08:50:38;;;;;;;15.75;7.60;;;;;;;0.22;72.09;103106.00;5028219;28;20119;-66
2023/02/09 08:53:05;;;;;;;15.60;7.40;;;;;;;0.31;73.63;103117.91;5034847;28;20068;-66
2023/02/09 08:55:33;;;;;;;13.13;6.45;;;;;;;0.37;71.45;103135.88;5022472;28;20053;-66
2023/02/09 08:57:59;;;;;;;12.65;7.55;;;;;;;0.41;70.29;103116.03;5027001;28;20556;-67
2023/02/09 09:00:26;;;;;;;12.82;7.25;;;;;;;0.49;71.31;103122.78;5020127;28;20065;-66
2023/02/09 09:02:52;;;;;;;15.55;7.60;;;;;;;0.53;71.36;103113.22;5045598;28;20063;-66
2023/02/09 09:05:18;;;;;;;15.25;6.78;;;;;;;0.61;70.65;103110.53;5005435;28;20287;-66
2023/02/09 09:07:45;;;;;;;18.65;7.80;;;;;;;0.66;70.72;103103.56;5039710;28;20048;-65
2023/02/09 09:10:12;;;;;;;14.35;7.55;;;;;;;0.67;68.49;103108.72;5037659;28;20057;-66
2023/02/09 09:12:39;;;;;;;13.15;7.30;;;;;;;0.69;68.43;103114.69;5024528;28;20053;-66
2023/02/09 09:15:05;;;;;;;15.27;7.38;;;;;;;0.70;68.62;103108.63;5053434;28;20049;-65
2023/02/09 09:17:32;;;;;;;11.35;5.75;;;;;;;0.74;68.56;103105.13;5037866;28;20736;-66
2023/02/09 09:19:58;;;;;;;13.27;7.47;;;;;;;0.77;69.09;103097.34;5030554;28;20168;-67
2023/02/09 09:22:24;;;;;;;14.27;7.40;;;;;;;0.83;67.29;103105.88;5020857;28;20052;-65
2023/02/09 09:24:53;;;;;;;15.15;7.18;;;;;;;0.88;67.80;103117.81;5021626;28;20057;-67
2023/02/09 09:27:20;;;;;;;;;;;;;;;1.05;67.95;103127.84;5023020;28;20534;-67
2023/02/09 09:29:46;;;;;;;11.23;6.80;;;;;;;1.09;68.73;103128.66;5021375;28;19994;-65
2023/02/09 09:32:13;;;;;;;13.23;7.07;;;;;;;1.18;69.58;103129.31;5038953;28;20044;-66
2023/02/09 09:34:40;;;;;;;15.35;7.43;;;;;;;1.27;68.98;103111.94;5032856;28;20049;-67
2023/02/09 09:37:06;;;;;;;13.50;7.72;;;;;;;1.24;67.08;103106.84;5031977;28;20406;-66
2023/02/09 09:39:33;;;;;;;13.63;6.78;;;;;;;1.29;67.69;103112.75;5034614;28;20058;-65
2023/02/09 09:42:00;;;;;;;14.52;7.93;;;;;;;1.25;66.52;103119.72;5034753;28;20136;-66
2023/02/09 09:44:34;;;;;;;15.82;7.55;;;;;;;1.36;68.42;103140.19;5030202;28;20060;-67
2023/02/09 09:47:07;;;;;;;14.43;6.97;;;;;;;1.42;66.94;103144.41;5020110;28;20049;-66
2023/02/09 09:49:36;;;;;;;12.15;6.97;;;;;;;1.46;66.50;103151.22;5037108;28;20068;-67
2023/02/09 09:52:29;;;;;;;16.05;8.52;;;;;;;1.53;66.70;103145.03;5023107;28;20132;-67
2023/02/09 09:54:58;;;;;;;17.73;7.25;;;;;;;1.51;66.30;103134.72;5021849;28;20053;-66
2023/02/09 09:57:27;;;;;;;14.98;7.72;;;;;;;1.60;65.65;103138.00;5021678;28;20080;-65
2023/02/09 09:59:55;;;;;;;14.90;7.50;;;;;;;1.65;66.10;103136.19;5027555;28;20056;-67
2023/02/09 10:02:30;;;;;;;13.63;7.15;;;;;;;1.71;66.91;103146.41;5016275;28;20104;-67
2023/02/09 10:05:17;;;;;;;14.90;8.00;;;;;;;1.69;65.45;103149.03;5029134;28;20061;-68
2023/02/09 10:07:54;;;;;;;12.63;7.00;;;;;;;1.72;65.13;103159.28;5016640;28;20050;-66
2023/02/09 10:10:43;;;;;;;12.43;7.72;;;;;;;1.67;64.96;103143.03;5030050;28;20049;-65
2023/02/09 10:13:26;;;;;;;13.38;7.40;;;;;;;1.70;65.12;103134.34;5042217;28;20104;-66
2023/02/09 10:15:55;;;;;;;14.18;7.10;;;;;;;1.71;65.12;103133.47;5026091;28;20052;-66
2023/02/09 10:18:24;;;;;;;14.82;8.00;;;;;;;1.70;64.39;103130.00;5025669;28;20059;-67
2023/02/09 10:20:55;;;;;;;15.55;7.22;;;;;;;1.78;65.90;103147.97;5015904;28;20131;-67
2023/02/09 10:23:34;;;;;;;14.82;7.80;;;;;;;1.84;65.76;103149.56;5033134;28;20049;-65
2023/02/09 10:26:07;;;;;;;14.50;7.43;;;;;;;1.92;65.85;103156.31;5031251;28;20140;-64
2023/02/09 10:28:39;;;;;;;13.15;7.53;;;;;;;1.94;65.39;103153.66;5039295;28;20079;-67
2023/02/09 10:31:36;;;;;;;19.40;7.40;;;;;;;2.02;66.27;103133.66;5037226;28;20050;-67
2023/02/09 10:34:15;;;;;;;14.95;7.72;;;;;;;2.09;65.80;103142.97;5033847;28;20494;-67
2023/02/09 10:36:44;;;;;;;14.35;8.00;;;;;;;2.23;65.64;103149.59;5029029;28;20057;-66
2023/02/09 10:39:11;;;;;;;15.82;7.80;;;;;;;2.27;65.01;103140.84;5034647;28;20605;-66
2023/02/09 10:41:40;;;;;;;19.10;7.35;;;;;;;2.30;63.98;103138.22;5036658;28;20060;-66
2023/02/09 10:44:20;;;;;;;16.00;7.50;;;;;;;2.35;63.68;103151.88;5026272;28;20054;-66
2023/02/09 10:46:47;;;;;;;14.48;8.10;;;;;;;2.40;64.28;103139.69;5033945;28;20060;-66
2023/02/09 10:49:34;;;;;;;15.10;8.05;;;;;;;2.59;63.86;103145.28;5028571;28;20049;-65
2023/02/09 10:52:11;;;;;;;14.25;7.70;;;;;;;2.67;63.56;103138.16;5035490;28;20053;-66
2023/02/09 10:55:18;;;;;;;13.10;7.50;;;;;;;2.81;63.90;103147.34;5038955;28;20489;-64
2023/02/09 10:57:45;;;;;;;15.40;9.05;;;;;;;2.78;62.62;103156.03;5040454;28;20137;-67
2023/02/09 11:00:14;;;;;;;13.52;7.95;;;;;;;2.86;62.65;103161.88;5027589;28;20056;-66
2023/02/09 11:02:47;;;;;;;16.45;8.18;;;;;;;2.96;63.20;103165.94;5037075;28;20060;-63
2023/02/09 11:05:20;;;;;;;13.68;7.40;;;;;;;3.03;62.71;103165.78;5049177;28;20053;-64
2023/02/09 11:08:14;;;;;;;16.75;8.40;;;;;;;3.03;62.17;103168.38;5033251;28;20075;-65
2023/02/09 11:10:55;;;;;;;19.17;9.20;;;;;;;3.11;62.04;103162.09;5041486;28;20052;-64
2023/02/09 11:13:24;;;;;;;15.98;8.32;;;;;;;3.20;62.15;103165.34;5028368;28;20052;-65
2023/02/09 11:16:02;;;;;;;17.88;8.82;;;;;;;3.27;62.64;103177.25;5034389;28;20107;-66
2023/02/09 11:18:33;;;;;;;18.50;8.40;;;;;;;3.38;62.27;103182.16;5028218;28;20780;-64
2023/02/09 11:21:14;;;;;;;16.50;9.00;;;;;;;3.45;61.81;103166.38;5032783;28;20148;-66
2023/02/09 11:23:54;;;;;;;16.40;8.15;;;;;;;3.56;61.20;103169.50;5022754;28;20490;-64
2023/02/09 11:26:46;;;;;;;17.70;8.50;;;;;;;3.62;62.08;103172.81;5048724;28;20127;-65
2023/02/09 11:29:36;;;;;;;14.68;9.18;;;;;;;3.71;62.59;103165.63;5017662;28;20076;-64
2023/02/09 11:32:30;;;;;;;15.50;8.88;;;;;;;3.70;61.74;103169.09;5036437;28;20048;-65
2023/02/09 11:35:03;;;;;;;16.05;9.90;;;;;;;3.87;63.77;103171.22;5007888;28;20399;-64
2023/02/09 11:37:45;;;;;;;13.93;9.18;;;;;;;3.79;61.91;103172.34;5033224;28;20708;-66
2023/02/09 11:40:11;;;;;;;13.57;8.32;;;;;;;3.78;63.40;103183.63;5033965;28;20517;-64
2023/02/09 11:42:45;;;;;;;17.08;8.85;;;;;;;3.76;62.79;103171.56;5028487;28;20068;-65
2023/02/09 11:45:32;;;;;;;17.95;9.48;;;;;;;3.83;63.93;103168.78;5033299;28;20072;-64
2023/02/09 11:48:21;;;;;;;15.67;8.90;;;;;;;4.00;64.30;103176.03;5035812;28;20053;-64